< < Back
Terminal Aerodrome Forecast


Current Version              Previous Versions:   1  2  3  4  5  6  7  8  9  

Terminal Aerodrome Forecast

103
FTUS42 KCHS 191740
TAFSAV
TAF
KSAV 191740Z 1918/2018 17010KT P6SM SCT010 BKN015
     FM191900 18012G18KT P6SM VCTS BKN015CB
      TEMPO 1920/1922 25025G38KT 1SM +TSRA BR SCT008 BKN015CB
     FM192200 21006KT 5SM -SHRA BR SCT015 BKN080
     FM200100 20004KT P6SM BKN012
     FM200600 23004KT P6SM BKN005
     FM201300 25009KT P6SM SCT020=

Latest METAR

509
SAUS80 KWBC 192200
MTRSAV
METAR KSAV 192153Z 24006KT 10SM -RA FEW042 SCT110 19/18 A2986 RMK AO2
TSE27 SLP110 P0005 T01940178


USA.gov is the U.S. government's official web portal to all federal, state and local government web resources and services.